createdAt,value
2023-09-04T00:00:06.914Z,2.50
2023-09-04T00:02:33.551Z,2.08
2023-09-04T00:05:00.184Z,2.38
2023-09-04T00:07:26.663Z,2.40
2023-09-04T00:09:53.740Z,2.25
2023-09-04T00:12:20.344Z,2.60
2023-09-04T00:14:46.839Z,2.33
2023-09-04T00:17:13.380Z,2.60
2023-09-04T00:19:39.931Z,2.03
2023-09-04T00:22:06.444Z,2.42
2023-09-04T00:24:33.010Z,1.92
2023-09-04T00:26:59.520Z,2.20
2023-09-04T00:29:26.045Z,2.50
2023-09-04T00:31:52.669Z,2.42
2023-09-04T00:34:19.529Z,2.50
2023-09-04T00:36:46.129Z,2.40
2023-09-04T00:39:12.741Z,2.53
2023-09-04T00:41:39.232Z,2.80
2023-09-04T00:44:06.121Z,2.35
2023-09-04T00:46:33.170Z,2.60
2023-09-04T00:48:59.981Z,2.38
2023-09-04T00:51:26.747Z,2.60
2023-09-04T00:53:53.654Z,2.30
2023-09-04T00:56:21.084Z,2.03
2023-09-04T00:58:48.520Z,2.00
2023-09-04T01:01:15.049Z,2.10
2023-09-04T01:03:42.304Z,2.72
2023-09-04T01:06:08.959Z,2.95
2023-09-04T01:08:37.495Z,2.38
2023-09-04T01:11:13.149Z,2.63
2023-09-04T01:13:50.498Z,2.00
2023-09-04T01:16:18.485Z,2.50
2023-09-04T01:18:45.586Z,2.50
2023-09-04T01:21:12.380Z,2.40
2023-09-04T01:23:38.975Z,2.30
2023-09-04T01:26:09.558Z,2.25
2023-09-04T01:28:43.791Z,2.28
2023-09-04T01:31:35.839Z,2.42
2023-09-04T01:34:10.194Z,2.33
2023-09-04T01:36:37.452Z,2.30
2023-09-04T01:39:05.017Z,3.00
2023-09-04T01:41:31.770Z,2.50
2023-09-04T01:43:58.376Z,2.30
2023-09-04T01:46:25.188Z,2.55
2023-09-04T01:48:51.765Z,2.70
2023-09-04T01:51:18.352Z,3.13
2023-09-04T01:53:44.882Z,2.92
2023-09-04T01:56:11.505Z,2.92
2023-09-04T01:58:38.060Z,3.35
2023-09-04T02:01:04.526Z,2.67
2023-09-04T02:03:31.144Z,2.85
2023-09-04T02:05:57.865Z,2.63
2023-09-04T02:08:24.805Z,2.75
2023-09-04T02:10:52.055Z,3.35
2023-09-04T02:13:18.736Z,3.15
2023-09-04T02:15:45.288Z,3.58
2023-09-04T02:18:11.991Z,3.30
2023-09-04T02:20:38.532Z,3.15
2023-09-04T02:23:05.375Z,3.22
2023-09-04T02:25:31.924Z,3.17
2023-09-04T02:27:58.478Z,3.05
2023-09-04T02:30:25.083Z,2.58
2023-09-04T02:32:51.689Z,2.63
2023-09-04T02:35:18.195Z,3.10
2023-09-04T02:37:45.784Z,2.65
2023-09-04T02:40:12.903Z,2.83
2023-09-04T02:42:39.522Z,2.30
2023-09-04T02:45:07.131Z,2.47
2023-09-04T02:47:33.679Z,2.78
2023-09-04T02:50:00.186Z,2.95
2023-09-04T02:52:26.700Z,2.60
2023-09-04T02:54:53.390Z,2.92
2023-09-04T02:57:19.907Z,2.67
2023-09-04T02:59:46.561Z,2.92
2023-09-04T03:02:13.172Z,2.53
2023-09-04T03:04:39.747Z,2.55
2023-09-04T03:07:06.266Z,2.80
2023-09-04T03:09:33.196Z,2.42
2023-09-04T03:12:00.376Z,2.72
2023-09-04T03:14:27.078Z,2.70
2023-09-04T03:16:53.903Z,2.90
2023-09-04T03:19:20.401Z,3.00
2023-09-04T03:21:46.941Z,3.95
2023-09-04T03:24:13.505Z,4.32
2023-09-04T03:26:40.112Z,5.57
2023-09-04T03:29:06.561Z,6.13
2023-09-04T03:31:33.114Z,6.20
2023-09-04T03:34:01.656Z,6.35
2023-09-04T03:36:28.242Z,6.50
2023-09-04T03:38:54.789Z,6.25
2023-09-04T03:41:21.309Z,8.00
2023-09-04T03:43:47.827Z,7.70
2023-09-04T03:46:14.604Z,8.02
2023-09-04T03:48:41.237Z,7.63
2023-09-04T03:51:07.986Z,8.05
2023-09-04T03:53:34.509Z,8.20
2023-09-04T03:56:05.887Z,8.50
2023-09-04T03:58:35.314Z,9.00
2023-09-04T04:01:01.982Z,9.20
2023-09-04T04:03:28.666Z,9.65
2023-09-04T04:05:55.364Z,9.65
2023-09-04T04:08:22.405Z,8.50
2023-09-04T04:10:49.193Z,9.57
2023-09-04T04:13:15.720Z,9.00
2023-09-04T04:15:42.891Z,7.90
2023-09-04T04:18:10.669Z,8.55
2023-09-04T04:20:37.602Z,8.73
2023-09-04T04:23:04.334Z,8.27
2023-09-04T04:25:30.818Z,8.05
2023-09-04T04:27:57.469Z,7.82
2023-09-04T04:30:24.098Z,7.60
2023-09-04T04:32:52.141Z,8.70
2023-09-04T04:35:18.893Z,8.25
2023-09-04T04:37:45.430Z,7.75
2023-09-04T04:40:12.160Z,7.93
2023-09-04T04:42:38.817Z,7.95
2023-09-04T04:45:05.878Z,7.57
2023-09-04T04:47:32.484Z,8.57
2023-09-04T04:49:59.084Z,8.10
2023-09-04T04:52:25.599Z,7.93
2023-09-04T04:54:52.134Z,8.85
2023-09-04T04:57:18.761Z,8.35
2023-09-04T04:59:46.317Z,8.75
2023-09-04T05:02:14.113Z,8.90
2023-09-04T05:04:46.253Z,8.85
2023-09-04T05:07:13.132Z,8.67
2023-09-04T05:09:39.730Z,8.02
2023-09-04T05:12:07.830Z,7.93
2023-09-04T05:14:34.919Z,8.63
2023-09-04T05:17:01.535Z,8.15
2023-09-04T05:19:30.513Z,8.20
2023-09-04T05:21:57.460Z,8.88
2023-09-04T05:24:24.359Z,9.23
2023-09-04T05:26:51.193Z,8.02
2023-09-04T05:29:17.767Z,9.73
2023-09-04T05:31:44.288Z,10.15
2023-09-04T05:34:10.823Z,11.02
2023-09-04T05:36:37.528Z,10.75
2023-09-04T05:39:04.408Z,10.95
2023-09-04T05:41:31.225Z,10.93
2023-09-04T05:43:57.895Z,12.13
2023-09-04T05:46:24.485Z,13.15
2023-09-04T05:48:51.040Z,12.27
2023-09-04T05:51:17.607Z,12.93
2023-09-04T05:53:47.013Z,12.57
2023-09-04T05:56:20.686Z,13.90
2023-09-04T05:58:50.608Z,14.35
2023-09-04T06:01:18.327Z,14.00
2023-09-04T06:03:46.327Z,14.38
2023-09-04T06:06:13.793Z,13.55
2023-09-04T06:08:40.512Z,14.48
2023-09-04T06:11:07.162Z,14.57
2023-09-04T06:13:34.169Z,14.27
2023-09-04T06:16:01.783Z,14.70
2023-09-04T06:18:31.601Z,14.75
2023-09-04T06:20:58.690Z,15.50
2023-09-04T06:23:25.424Z,14.85
2023-09-04T06:25:51.969Z,15.95
2023-09-04T06:28:18.768Z,15.63
2023-09-04T06:30:46.398Z,15.98
2023-09-04T06:33:13.158Z,15.80
2023-09-04T06:35:39.778Z,15.00
2023-09-04T06:38:07.043Z,15.60
2023-09-04T06:40:33.743Z,14.38
2023-09-04T06:43:00.320Z,15.50
2023-09-04T06:45:27.083Z,15.45
2023-09-04T06:47:54.319Z,14.90
2023-09-04T06:50:20.905Z,14.50
2023-09-04T06:52:47.657Z,14.75
2023-09-04T06:55:14.309Z,14.18
2023-09-04T06:57:40.858Z,12.85
2023-09-04T07:00:12.076Z,12.48
2023-09-04T07:02:38.856Z,12.88
2023-09-04T07:05:08.370Z,15.05
2023-09-04T07:07:38.156Z,13.23
2023-09-04T07:10:06.046Z,14.20
2023-09-04T07:12:35.818Z,12.13
2023-09-04T07:15:02.707Z,11.95
2023-09-04T07:17:29.449Z,12.00
2023-09-04T07:19:56.049Z,12.23
2023-09-04T07:22:22.592Z,10.77
2023-09-04T07:24:49.230Z,9.63
2023-09-04T07:27:15.808Z,9.63
2023-09-04T07:29:42.324Z,11.57
2023-09-04T07:32:08.840Z,10.80
2023-09-04T07:34:36.605Z,9.52
2023-09-04T07:37:03.871Z,8.50
2023-09-04T07:39:30.576Z,8.45
2023-09-04T07:41:59.884Z,7.93
2023-09-04T07:44:26.495Z,8.05
2023-09-04T07:46:54.095Z,7.32
2023-09-04T07:49:20.997Z,7.85
2023-09-04T07:51:47.608Z,6.80
2023-09-04T07:54:14.209Z,6.45
2023-09-04T07:56:42.776Z,6.38
2023-09-04T07:59:10.785Z,6.10
2023-09-04T08:01:37.602Z,5.63
2023-09-04T08:04:04.789Z,5.13
2023-09-04T08:06:31.392Z,3.78
2023-09-04T08:08:58.352Z,1.50
2023-09-04T08:11:25.089Z,1.10
2023-09-04T08:13:51.624Z,1.17
2023-09-04T08:16:18.274Z,1.20
2023-09-04T08:18:44.814Z,1.92
2023-09-04T08:21:11.421Z,1.48
2023-09-04T08:23:37.964Z,1.25
2023-09-04T08:26:05.483Z,1.20
2023-09-04T08:28:32.144Z,1.17
2023-09-04T08:30:58.855Z,1.65
2023-09-04T08:33:25.768Z,1.30
2023-09-04T08:35:52.541Z,1.15
2023-09-04T08:38:19.035Z,1.02
2023-09-04T08:40:46.716Z,1.02
2023-09-04T08:43:13.365Z,1.30
2023-09-04T08:45:43.508Z,1.30
2023-09-04T08:48:12.719Z,1.08
2023-09-04T08:50:39.278Z,1.40
2023-09-04T08:53:05.794Z,1.10
2023-09-04T08:55:35.052Z,1.45
2023-09-04T08:58:03.234Z,1.00
2023-09-04T09:00:30.086Z,1.42
2023-09-04T09:03:02.251Z,1.10
2023-09-04T09:05:30.471Z,1.10
2023-09-04T09:07:57.817Z,1.02
2023-09-04T09:10:25.088Z,1.15
2023-09-04T09:12:51.745Z,1.10
2023-09-04T09:15:18.506Z,1.20
2023-09-04T09:17:55.923Z,1.02
2023-09-04T09:20:45.555Z,0.98
2023-09-04T09:23:15.854Z,0.90
2023-09-04T09:25:42.491Z,1.10
2023-09-04T09:28:09.555Z,1.80
2023-09-04T09:30:39.045Z,1.10
2023-09-04T09:33:13.548Z,0.90
2023-09-04T09:35:44.004Z,1.60
2023-09-04T09:38:10.895Z,1.20
2023-09-04T09:40:38.500Z,1.10
2023-09-04T09:43:05.683Z,1.10
2023-09-04T09:45:37.548Z,1.55
2023-09-04T09:48:09.211Z,1.17
2023-09-04T09:50:41.331Z,1.20
2023-09-04T09:53:07.968Z,1.08
2023-09-04T09:55:35.969Z,0.95
2023-09-04T09:58:02.842Z,1.30
2023-09-04T10:00:30.175Z,1.02
2023-09-04T10:02:57.496Z,1.08
2023-09-04T10:05:25.195Z,1.20
2023-09-04T10:07:59.910Z,1.00
2023-09-04T10:10:26.619Z,1.08
2023-09-04T10:13:03.931Z,0.85
2023-09-04T10:15:33.274Z,1.48
2023-09-04T10:18:06.785Z,1.33
2023-09-04T10:20:35.114Z,0.80
2023-09-04T10:23:08.445Z,1.17
2023-09-04T10:25:54.545Z,1.20
2023-09-04T10:28:43.911Z,1.20
2023-09-04T10:31:11.947Z,1.63
2023-09-04T10:33:39.430Z,1.25
2023-09-04T10:36:07.070Z,1.00
2023-09-04T10:38:36.373Z,1.30
2023-09-04T10:41:05.478Z,1.10
2023-09-04T10:43:45.117Z,1.00
2023-09-04T10:46:14.082Z,1.05
2023-09-04T10:48:45.261Z,1.33
2023-09-04T10:51:30.506Z,1.10
2023-09-04T10:53:59.224Z,7.72
2023-09-04T10:56:26.523Z,3.90
2023-09-04T10:59:06.670Z,2.88
2023-09-04T11:01:36.105Z,4.60
2023-09-04T11:04:07.571Z,4.00
2023-09-04T11:06:41.982Z,7.63
2023-09-04T11:09:15.382Z,8.05
2023-09-04T11:11:41.868Z,3.80
2023-09-04T11:14:10.528Z,2.92
2023-09-04T11:16:41.588Z,3.47
2023-09-04T11:19:19.404Z,1.65
2023-09-04T11:21:47.916Z,2.92
2023-09-04T11:24:15.464Z,2.90
2023-09-04T11:26:42.057Z,1.75
2023-09-04T11:29:08.955Z,2.72
2023-09-04T11:31:36.071Z,2.35
2023-09-04T11:34:05.953Z,2.30
2023-09-04T11:36:38.551Z,2.33
2023-09-04T11:39:07.463Z,2.60
2023-09-04T11:41:34.226Z,1.80
2023-09-04T11:44:02.598Z,1.60
2023-09-04T11:46:29.694Z,1.60
2023-09-04T11:48:57.296Z,2.00
2023-09-04T11:51:24.229Z,1.58
2023-09-04T11:53:51.256Z,1.80
2023-09-04T11:56:18.270Z,1.42
2023-09-04T11:58:44.869Z,1.10
2023-09-04T12:01:11.769Z,1.17
2023-09-04T12:03:38.374Z,1.23
2023-09-04T12:06:05.097Z,1.50
2023-09-04T12:08:31.737Z,1.42
2023-09-04T12:10:58.503Z,1.92
2023-09-04T12:13:25.441Z,1.20
2023-09-04T12:15:52.301Z,1.00
2023-09-04T12:18:19.190Z,1.30
2023-09-04T12:20:46.511Z,1.20
2023-09-04T12:23:15.077Z,1.35
2023-09-04T12:25:44.350Z,0.90
2023-09-04T12:28:16.172Z,0.82
2023-09-04T12:30:48.844Z,1.00
2023-09-04T12:33:19.211Z,0.80
2023-09-04T12:35:56.338Z,1.38
2023-09-04T12:38:23.009Z,1.20
2023-09-04T12:40:49.585Z,1.00
2023-09-04T12:43:16.208Z,1.17
2023-09-04T12:45:43.763Z,0.80
2023-09-04T12:48:17.951Z,1.17
2023-09-04T12:50:45.374Z,0.95
2023-09-04T12:53:11.930Z,1.05
2023-09-04T12:55:38.434Z,1.00
2023-09-04T12:58:10.590Z,1.10
2023-09-04T13:00:38.524Z,1.15
2023-09-04T13:03:07.410Z,1.25
2023-09-04T13:05:34.512Z,0.88
2023-09-04T13:08:01.097Z,1.00
2023-09-04T13:10:27.808Z,1.25
2023-09-04T13:12:54.470Z,1.50
2023-09-04T13:15:21.117Z,0.90
2023-09-04T13:17:47.784Z,0.80
2023-09-04T13:20:15.635Z,1.10
2023-09-04T13:22:43.951Z,1.10
2023-09-04T13:25:11.014Z,1.13
2023-09-04T13:27:39.562Z,0.98
2023-09-04T13:30:07.241Z,1.00
2023-09-04T13:32:33.837Z,0.82
2023-09-04T13:35:00.678Z,0.73
2023-09-04T13:37:28.093Z,1.05
2023-09-04T13:39:54.666Z,1.00
2023-09-04T13:42:21.606Z,0.70
2023-09-04T13:44:49.276Z,0.90
2023-09-04T13:47:16.455Z,1.20
2023-09-04T13:49:44.339Z,1.58
2023-09-04T13:52:14.212Z,1.00
2023-09-04T13:54:41.361Z,0.90
2023-09-04T13:57:08.518Z,0.90
2023-09-04T13:59:35.246Z,0.80
2023-09-04T14:02:01.834Z,1.10
2023-09-04T14:04:28.426Z,0.90
2023-09-04T14:06:54.947Z,0.98
2023-09-04T14:09:21.499Z,1.20
2023-09-04T14:11:49.018Z,0.80
2023-09-04T14:14:19.800Z,0.70
2023-09-04T14:16:46.381Z,1.10
2023-09-04T14:19:14.622Z,1.02
2023-09-04T14:21:41.382Z,0.98
2023-09-04T14:24:08.030Z,0.93
2023-09-04T14:26:34.507Z,0.95
2023-09-04T14:29:01.838Z,0.80
2023-09-04T14:31:29.505Z,0.90
2023-09-04T14:33:56.015Z,1.10
2023-09-04T14:36:22.585Z,0.90
2023-09-04T14:38:49.849Z,1.13
2023-09-04T14:41:33.262Z,1.20
2023-09-04T14:44:00.643Z,2.88
2023-09-04T14:46:27.680Z,3.72
2023-09-04T14:48:55.852Z,3.20
2023-09-04T14:51:24.031Z,2.85
2023-09-04T14:53:52.630Z,4.43
2023-09-04T14:56:20.903Z,4.10
2023-09-04T14:58:47.467Z,2.55
2023-09-04T15:01:23.608Z,2.35
2023-09-04T15:03:51.723Z,1.73
2023-09-04T15:06:18.803Z,2.47
2023-09-04T15:08:45.887Z,1.90
2023-09-04T15:11:16.312Z,1.17
2023-09-04T15:13:45.048Z,1.20
2023-09-04T15:16:11.720Z,1.77
2023-09-04T15:18:39.524Z,1.48
2023-09-04T15:21:07.420Z,1.55
2023-09-04T15:23:35.048Z,1.13
2023-09-04T15:26:01.876Z,1.70
2023-09-04T15:28:28.809Z,1.65
2023-09-04T15:30:59.419Z,1.92
2023-09-04T15:33:27.874Z,1.20
2023-09-04T15:35:55.984Z,1.48
2023-09-04T15:38:22.584Z,1.48
2023-09-04T15:40:49.448Z,1.60
2023-09-04T15:43:16.151Z,1.40
2023-09-04T15:45:42.826Z,1.30
2023-09-04T15:48:09.568Z,1.30
2023-09-04T15:50:36.355Z,1.33
2023-09-04T15:53:04.076Z,1.13
2023-09-04T15:55:31.001Z,1.25
2023-09-04T15:57:57.592Z,1.00
2023-09-04T16:00:25.413Z,1.10
2023-09-04T16:02:52.055Z,1.30
2023-09-04T16:05:18.630Z,1.30
2023-09-04T16:07:45.242Z,0.98
2023-09-04T16:10:11.805Z,1.35
2023-09-04T16:12:38.416Z,1.30
2023-09-04T16:15:06.160Z,1.20
2023-09-04T16:17:32.878Z,1.15
2023-09-04T16:19:59.420Z,1.50
2023-09-04T16:22:25.893Z,1.30
2023-09-04T16:24:52.440Z,1.38
2023-09-04T16:27:19.008Z,1.30
2023-09-04T16:29:45.533Z,1.60
2023-09-04T16:32:12.241Z,1.33
2023-09-04T16:34:38.806Z,1.10
2023-09-04T16:37:05.831Z,1.30
2023-09-04T16:39:32.480Z,1.15
2023-09-04T16:41:59.220Z,1.40
2023-09-04T16:44:25.849Z,1.38
2023-09-04T16:46:52.361Z,1.33
2023-09-04T16:49:18.842Z,1.25
2023-09-04T16:51:55.600Z,1.25
2023-09-04T16:54:23.293Z,0.98
2023-09-04T16:56:49.801Z,1.20
2023-09-04T16:59:16.268Z,1.02
2023-09-04T17:01:43.028Z,1.13
2023-09-04T17:04:09.552Z,1.20
2023-09-04T17:06:36.225Z,1.30
2023-09-04T17:09:03.141Z,1.40
2023-09-04T17:11:29.887Z,1.23
2023-09-04T17:13:56.449Z,1.50
2023-09-04T17:16:23.165Z,0.95
2023-09-04T17:18:49.774Z,1.08
2023-09-04T17:21:16.391Z,1.30
2023-09-04T17:23:42.965Z,0.98
2023-09-04T17:26:09.514Z,1.40
2023-09-04T17:28:36.176Z,1.40
2023-09-04T17:31:06.900Z,1.00
2023-09-04T17:33:34.113Z,1.30
2023-09-04T17:36:02.602Z,1.50
2023-09-04T17:38:38.543Z,1.50
2023-09-04T17:41:12.488Z,1.20
2023-09-04T17:43:39.685Z,1.50
2023-09-04T17:46:08.668Z,1.35
2023-09-04T17:48:35.809Z,1.92
2023-09-04T17:51:02.354Z,1.27
2023-09-04T17:53:28.914Z,1.40
2023-09-04T17:55:55.615Z,1.40
2023-09-04T17:58:22.252Z,1.33
2023-09-04T18:00:48.838Z,1.38
2023-09-04T18:03:15.541Z,1.25
2023-09-04T18:05:43.372Z,1.55
2023-09-04T18:08:09.932Z,1.63
2023-09-04T18:10:37.752Z,1.33
2023-09-04T18:13:04.951Z,1.52
2023-09-04T18:15:31.537Z,1.30
2023-09-04T18:17:58.191Z,1.55
2023-09-04T18:20:24.807Z,1.40
2023-09-04T18:22:51.606Z,1.80
2023-09-04T18:25:19.128Z,1.83
2023-09-04T18:27:45.654Z,1.65
2023-09-04T18:30:15.029Z,1.73
2023-09-04T18:32:42.060Z,1.55
2023-09-04T18:35:09.241Z,1.25
2023-09-04T18:37:35.806Z,1.30
2023-09-04T18:40:02.335Z,1.35
2023-09-04T18:42:29.007Z,1.35
2023-09-04T18:44:55.764Z,1.42
2023-09-04T18:47:22.461Z,1.70
2023-09-04T18:49:51.772Z,1.60
2023-09-04T18:52:19.902Z,1.60
2023-09-04T18:54:47.972Z,1.50
2023-09-04T18:57:15.491Z,1.75
2023-09-04T18:59:42.104Z,1.77
2023-09-04T19:02:08.951Z,1.50
2023-09-04T19:04:36.672Z,1.40
2023-09-04T19:07:06.507Z,1.52
2023-09-04T19:09:33.938Z,1.42
2023-09-04T19:12:01.803Z,1.27
2023-09-04T19:14:29.550Z,1.63
2023-09-04T19:16:56.336Z,1.25
2023-09-04T19:19:23.926Z,1.48
2023-09-04T19:21:50.700Z,1.20
2023-09-04T19:24:17.273Z,1.42
2023-09-04T19:26:44.356Z,1.95
2023-09-04T19:29:10.822Z,2.28
2023-09-04T19:31:37.495Z,1.83
2023-09-04T19:34:04.298Z,1.55
2023-09-04T19:36:30.851Z,1.77
2023-09-04T19:38:57.431Z,1.80
2023-09-04T19:41:24.289Z,1.90
2023-09-04T19:43:50.928Z,1.60
2023-09-04T19:46:17.595Z,2.10
2023-09-04T19:48:44.109Z,1.33
2023-09-04T19:51:10.820Z,1.80
2023-09-04T19:53:37.534Z,1.60
2023-09-04T19:56:05.191Z,1.90
2023-09-04T19:58:32.064Z,1.58
2023-09-04T20:00:59.763Z,1.58
2023-09-04T20:03:26.792Z,1.42
2023-09-04T20:05:53.958Z,1.98
2023-09-04T20:08:20.529Z,1.70
2023-09-04T20:10:47.134Z,1.70
2023-09-04T20:13:13.599Z,1.77
2023-09-04T20:15:40.242Z,2.63
2023-09-04T20:18:06.833Z,2.03
2023-09-04T20:20:33.490Z,2.00
2023-09-04T20:23:00.035Z,2.00
2023-09-04T20:25:26.526Z,1.88
2023-09-04T20:27:53.146Z,1.83
2023-09-04T20:30:24.771Z,2.30
2023-09-04T20:32:53.738Z,2.30
2023-09-04T20:35:20.402Z,2.53
2023-09-04T20:37:46.909Z,2.20
2023-09-04T20:40:13.395Z,2.60
2023-09-04T20:42:40.398Z,1.75
2023-09-04T20:45:07.883Z,1.98
2023-09-04T20:47:36.217Z,2.00
2023-09-04T20:50:06.401Z,2.10
2023-09-04T20:52:33.151Z,1.85
2023-09-04T20:54:59.736Z,2.20
2023-09-04T20:57:26.275Z,1.85
2023-09-04T20:59:52.821Z,1.80
2023-09-04T21:02:19.499Z,1.90
2023-09-04T21:04:46.347Z,2.03
2023-09-04T21:07:12.790Z,2.10
2023-09-04T21:09:39.272Z,3.17
2023-09-04T21:12:24.802Z,2.10
2023-09-04T21:15:10.200Z,2.25
2023-09-04T21:17:55.292Z,2.17
2023-09-04T21:20:40.553Z,2.60
2023-09-04T21:23:25.741Z,2.65
2023-09-04T21:26:11.276Z,2.15
2023-09-04T21:28:56.354Z,2.45
2023-09-04T21:31:41.175Z,2.35
2023-09-04T21:34:26.060Z,2.30
2023-09-04T21:37:10.899Z,2.10
2023-09-04T21:39:55.972Z,2.50
2023-09-04T21:42:40.694Z,2.30
2023-09-04T21:45:26.228Z,2.20
2023-09-04T21:48:11.356Z,2.78
2023-09-04T21:50:56.286Z,2.10
2023-09-04T21:53:41.266Z,2.20
2023-09-04T21:56:26.679Z,2.42
2023-09-04T21:59:11.462Z,2.28
2023-09-04T22:01:56.298Z,2.05
2023-09-04T22:04:41.431Z,2.10
2023-09-04T22:07:26.344Z,2.03
2023-09-04T22:10:11.386Z,2.25
2023-09-04T22:12:56.198Z,2.25
2023-09-04T22:15:41.139Z,2.50
2023-09-04T22:18:37.819Z,2.17
2023-09-04T22:21:23.266Z,2.05
2023-09-04T22:24:09.923Z,2.10
2023-09-04T22:26:55.330Z,1.83
2023-09-04T22:29:42.794Z,1.95
2023-09-04T22:32:28.841Z,1.88
2023-09-04T22:35:14.904Z,2.13
2023-09-04T22:38:00.345Z,2.28
2023-09-04T22:40:45.223Z,2.30
2023-09-04T22:43:30.251Z,2.15
2023-09-04T22:46:15.046Z,2.60
2023-09-04T22:48:59.932Z,1.98
2023-09-04T22:51:44.960Z,2.28
2023-09-04T22:54:29.883Z,2.30
2023-09-04T22:57:14.932Z,2.35
2023-09-04T22:59:59.780Z,2.10
2023-09-04T23:02:45.319Z,2.33
2023-09-04T23:05:30.113Z,2.40
2023-09-04T23:08:15.036Z,2.05
2023-09-04T23:11:00.665Z,2.08
2023-09-04T23:13:45.954Z,2.08
2023-09-04T23:16:31.505Z,2.10
2023-09-04T23:19:16.409Z,1.75
2023-09-04T23:21:43.059Z,1.77
2023-09-04T23:24:13.031Z,2.10
2023-09-04T23:26:41.523Z,2.25
2023-09-04T23:29:12.953Z,1.90
2023-09-04T23:31:49.222Z,2.15
2023-09-04T23:34:19.376Z,1.60
2023-09-04T23:36:48.845Z,2.00
2023-09-04T23:39:21.672Z,2.08
2023-09-04T23:44:51.863Z,2.10
2023-09-04T23:47:18.415Z,1.90
2023-09-04T23:49:44.957Z,1.95
2023-09-04T23:52:11.528Z,2.53
2023-09-04T23:54:39.101Z,1.92
2023-09-04T23:57:09.258Z,2.05
2023-09-04T23:59:36.421Z,2.15
